sensor_id;sensor_type;location;lat;lon;timestamp;P1;durP1;ratioP1;P2;durP2;ratioP2
40729;SDS011;26418;50.070;8.436;2023-06-14T00:01:39;6.90;;;4.90;;
40729;SDS011;26418;50.070;8.436;2023-06-14T00:04:05;10.88;;;4.97;;
40729;SDS011;26418;50.070;8.436;2023-06-14T00:06:31;7.78;;;4.80;;
40729;SDS011;26418;50.070;8.436;2023-06-14T00:21:26;9.07;;;5.00;;
40729;SDS011;26418;50.070;8.436;2023-06-14T00:23:57;11.73;;;4.93;;
40729;SDS011;26418;50.070;8.436;2023-06-14T00:26:29;8.90;;;5.05;;
40729;SDS011;26418;50.070;8.436;2023-06-14T00:34:30;5.85;;;4.18;;
40729;SDS011;26418;50.070;8.436;2023-06-14T00:42:49;6.25;;;4.28;;
40729;SDS011;26418;50.070;8.436;2023-06-14T00:45:15;9.07;;;4.72;;
40729;SDS011;26418;50.070;8.436;2023-06-14T00:47:41;6.28;;;4.60;;
40729;SDS011;26418;50.070;8.436;2023-06-14T00:50:17;6.65;;;4.85;;
40729;SDS011;26418;50.070;8.436;2023-06-14T00:52:54;11.27;;;5.00;;
40729;SDS011;26418;50.070;8.436;2023-06-14T00:55:26;10.60;;;4.80;;
40729;SDS011;26418;50.070;8.436;2023-06-14T00:57:55;7.10;;;4.25;;
40729;SDS011;26418;50.070;8.436;2023-06-14T01:03:11;6.57;;;5.05;;
40729;SDS011;26418;50.070;8.436;2023-06-14T01:05:37;7.63;;;4.43;;
40729;SDS011;26418;50.070;8.436;2023-06-14T01:11:01;9.38;;;4.38;;
40729;SDS011;26418;50.070;8.436;2023-06-14T01:13:36;6.72;;;4.55;;
40729;SDS011;26418;50.070;8.436;2023-06-14T01:16:07;8.20;;;4.53;;
40729;SDS011;26418;50.070;8.436;2023-06-14T01:18:39;5.70;;;4.68;;
40729;SDS011;26418;50.070;8.436;2023-06-14T01:21:19;7.15;;;4.43;;
40729;SDS011;26418;50.070;8.436;2023-06-14T01:23:45;5.55;;;3.78;;
40729;SDS011;26418;50.070;8.436;2023-06-14T01:26:17;6.63;;;3.78;;
40729;SDS011;26418;50.070;8.436;2023-06-14T01:28:44;9.73;;;4.30;;
40729;SDS011;26418;50.070;8.436;2023-06-14T01:31:20;6.45;;;4.28;;
40729;SDS011;26418;50.070;8.436;2023-06-14T01:33:50;6.15;;;3.88;;
40729;SDS011;26418;50.070;8.436;2023-06-14T01:36:26;9.57;;;5.10;;
40729;SDS011;26418;50.070;8.436;2023-06-14T01:41:57;7.47;;;4.25;;
40729;SDS011;26418;50.070;8.436;2023-06-14T01:44:24;7.93;;;4.47;;
40729;SDS011;26418;50.070;8.436;2023-06-14T01:46:50;4.22;;;3.35;;
40729;SDS011;26418;50.070;8.436;2023-06-14T01:49:28;4.60;;;3.60;;
40729;SDS011;26418;50.070;8.436;2023-06-14T01:54:38;5.93;;;4.25;;
40729;SDS011;26418;50.070;8.436;2023-06-14T01:57:16;6.78;;;4.15;;
40729;SDS011;26418;50.070;8.436;2023-06-14T01:59:42;6.65;;;4.53;;
40729;SDS011;26418;50.070;8.436;2023-06-14T02:02:07;7.35;;;4.07;;
40729;SDS011;26418;50.070;8.436;2023-06-14T02:04:33;7.55;;;4.50;;
40729;SDS011;26418;50.070;8.436;2023-06-14T02:06:59;8.43;;;4.10;;
40729;SDS011;26418;50.070;8.436;2023-06-14T02:09:25;7.20;;;4.28;;
40729;SDS011;26418;50.070;8.436;2023-06-14T02:11:50;11.80;;;4.13;;
40729;SDS011;26418;50.070;8.436;2023-06-14T02:14:16;9.43;;;4.30;;
40729;SDS011;26418;50.070;8.436;2023-06-14T02:16:42;5.38;;;4.22;;
40729;SDS011;26418;50.070;8.436;2023-06-14T02:19:16;5.65;;;3.97;;
40729;SDS011;26418;50.070;8.436;2023-06-14T02:21:42;8.95;;;4.18;;
40729;SDS011;26418;50.070;8.436;2023-06-14T02:24:12;12.13;;;4.30;;
40729;SDS011;26418;50.070;8.436;2023-06-14T02:26:38;6.22;;;3.65;;
40729;SDS011;26418;50.070;8.436;2023-06-14T02:29:06;8.95;;;4.57;;
40729;SDS011;26418;50.070;8.436;2023-06-14T02:31:37;4.97;;;3.60;;
40729;SDS011;26418;50.070;8.436;2023-06-14T02:34:12;5.47;;;3.80;;
40729;SDS011;26418;50.070;8.436;2023-06-14T02:36:38;5.43;;;4.07;;
40729;SDS011;26418;50.070;8.436;2023-06-14T02:39:09;5.68;;;4.00;;
40729;SDS011;26418;50.070;8.436;2023-06-14T02:41:35;6.82;;;4.63;;
40729;SDS011;26418;50.070;8.436;2023-06-14T02:44:03;5.40;;;3.58;;
40729;SDS011;26418;50.070;8.436;2023-06-14T02:46:29;7.82;;;3.97;;
40729;SDS011;26418;50.070;8.436;2023-06-14T02:48:58;5.93;;;3.83;;
40729;SDS011;26418;50.070;8.436;2023-06-14T02:51:24;7.43;;;4.05;;
40729;SDS011;26418;50.070;8.436;2023-06-14T02:53:50;9.88;;;4.43;;
40729;SDS011;26418;50.070;8.436;2023-06-14T02:56:16;6.20;;;3.78;;
40729;SDS011;26418;50.070;8.436;2023-06-14T02:58:48;6.82;;;4.53;;
40729;SDS011;26418;50.070;8.436;2023-06-14T03:01:26;9.25;;;4.05;;
40729;SDS011;26418;50.070;8.436;2023-06-14T03:03:58;6.03;;;3.88;;
40729;SDS011;26418;50.070;8.436;2023-06-14T03:06:24;7.88;;;4.05;;
40729;SDS011;26418;50.070;8.436;2023-06-14T03:09:05;6.20;;;4.18;;
40729;SDS011;26418;50.070;8.436;2023-06-14T03:11:37;10.95;;;3.88;;
40729;SDS011;26418;50.070;8.436;2023-06-14T03:16:52;10.05;;;3.95;;
40729;SDS011;26418;50.070;8.436;2023-06-14T03:19:22;7.63;;;4.15;;
40729;SDS011;26418;50.070;8.436;2023-06-14T03:21:48;12.95;;;4.43;;
40729;SDS011;26418;50.070;8.436;2023-06-14T03:24:15;4.57;;;4.00;;
40729;SDS011;26418;50.070;8.436;2023-06-14T03:26:43;9.25;;;4.13;;
40729;SDS011;26418;50.070;8.436;2023-06-14T03:29:08;5.38;;;3.63;;
40729;SDS011;26418;50.070;8.436;2023-06-14T03:31:34;6.30;;;4.47;;
40729;SDS011;26418;50.070;8.436;2023-06-14T03:34:00;8.65;;;4.28;;
40729;SDS011;26418;50.070;8.436;2023-06-14T03:36:26;7.82;;;4.00;;
40729;SDS011;26418;50.070;8.436;2023-06-14T03:38:55;5.80;;;4.30;;
40729;SDS011;26418;50.070;8.436;2023-06-14T03:41:21;5.07;;;4.03;;
40729;SDS011;26418;50.070;8.436;2023-06-14T03:43:47;9.43;;;4.65;;
40729;SDS011;26418;50.070;8.436;2023-06-14T03:46:13;7.10;;;3.85;;
40729;SDS011;26418;50.070;8.436;2023-06-14T03:48:38;6.90;;;4.40;;
40729;SDS011;26418;50.070;8.436;2023-06-14T03:51:04;5.90;;;4.10;;
40729;SDS011;26418;50.070;8.436;2023-06-14T03:53:30;10.85;;;4.57;;
40729;SDS011;26418;50.070;8.436;2023-06-14T03:55:56;8.80;;;4.85;;
40729;SDS011;26418;50.070;8.436;2023-06-14T03:58:22;8.27;;;4.07;;
40729;SDS011;26418;50.070;8.436;2023-06-14T04:00:48;9.63;;;4.82;;
40729;SDS011;26418;50.070;8.436;2023-06-14T04:03:13;4.70;;;4.05;;
40729;SDS011;26418;50.070;8.436;2023-06-14T04:05:40;10.20;;;4.53;;
40729;SDS011;26418;50.070;8.436;2023-06-14T04:08:09;7.03;;;4.22;;
40729;SDS011;26418;50.070;8.436;2023-06-14T04:10:35;5.72;;;4.10;;
40729;SDS011;26418;50.070;8.436;2023-06-14T04:13:01;8.18;;;4.60;;
40729;SDS011;26418;50.070;8.436;2023-06-14T04:15:26;7.03;;;4.20;;
40729;SDS011;26418;50.070;8.436;2023-06-14T04:17:55;10.93;;;4.03;;
40729;SDS011;26418;50.070;8.436;2023-06-14T04:20:22;5.78;;;3.97;;
40729;SDS011;26418;50.070;8.436;2023-06-14T04:22:50;8.88;;;4.43;;
40729;SDS011;26418;50.070;8.436;2023-06-14T04:25:16;8.50;;;3.83;;
40729;SDS011;26418;50.070;8.436;2023-06-14T04:27:42;9.50;;;4.65;;
40729;SDS011;26418;50.070;8.436;2023-06-14T04:30:08;6.78;;;3.97;;
40729;SDS011;26418;50.070;8.436;2023-06-14T04:32:34;11.10;;;4.63;;
40729;SDS011;26418;50.070;8.436;2023-06-14T04:35:06;5.15;;;3.97;;
40729;SDS011;26418;50.070;8.436;2023-06-14T04:37:32;8.68;;;4.55;;
40729;SDS011;26418;50.070;8.436;2023-06-14T04:39:59;8.32;;;4.32;;
40729;SDS011;26418;50.070;8.436;2023-06-14T04:42:24;11.70;;;4.43;;
40729;SDS011;26418;50.070;8.436;2023-06-14T04:44:55;6.30;;;4.13;;
40729;SDS011;26418;50.070;8.436;2023-06-14T04:47:20;8.25;;;4.65;;
40729;SDS011;26418;50.070;8.436;2023-06-14T04:49:46;7.22;;;4.07;;
40729;SDS011;26418;50.070;8.436;2023-06-14T04:52:12;13.10;;;4.72;;
40729;SDS011;26418;50.070;8.436;2023-06-14T04:54:38;6.80;;;4.32;;
40729;SDS011;26418;50.070;8.436;2023-06-14T04:57:07;7.43;;;4.57;;
40729;SDS011;26418;50.070;8.436;2023-06-14T04:59:33;6.63;;;4.70;;
40729;SDS011;26418;50.070;8.436;2023-06-14T05:02:00;9.82;;;4.15;;
40729;SDS011;26418;50.070;8.436;2023-06-14T05:04:26;10.70;;;4.80;;
40729;SDS011;26418;50.070;8.436;2023-06-14T05:06:53;6.22;;;4.03;;
40729;SDS011;26418;50.070;8.436;2023-06-14T05:09:19;5.55;;;3.92;;
40729;SDS011;26418;50.070;8.436;2023-06-14T05:11:46;8.13;;;4.47;;
40729;SDS011;26418;50.070;8.436;2023-06-14T05:14:12;7.45;;;4.22;;
40729;SDS011;26418;50.070;8.436;2023-06-14T05:16:39;9.43;;;4.07;;
40729;SDS011;26418;50.070;8.436;2023-06-14T05:19:05;8.77;;;4.20;;
40729;SDS011;26418;50.070;8.436;2023-06-14T05:21:31;10.35;;;4.40;;
40729;SDS011;26418;50.070;8.436;2023-06-14T05:23:59;9.18;;;4.13;;
40729;SDS011;26418;50.070;8.436;2023-06-14T05:26:25;5.15;;;3.40;;
40729;SDS011;26418;50.070;8.436;2023-06-14T05:28:58;6.28;;;3.97;;
40729;SDS011;26418;50.070;8.436;2023-06-14T05:31:25;6.30;;;3.60;;
40729;SDS011;26418;50.070;8.436;2023-06-14T05:33:51;7.18;;;4.10;;
40729;SDS011;26418;50.070;8.436;2023-06-14T05:36:17;6.40;;;4.60;;
40729;SDS011;26418;50.070;8.436;2023-06-14T05:38:44;8.23;;;4.05;;
40729;SDS011;26418;50.070;8.436;2023-06-14T05:41:10;6.63;;;4.03;;
40729;SDS011;26418;50.070;8.436;2023-06-14T05:43:36;9.48;;;4.40;;
40729;SDS011;26418;50.070;8.436;2023-06-14T05:46:01;8.02;;;3.33;;
40729;SDS011;26418;50.070;8.436;2023-06-14T05:48:27;8.35;;;3.60;;
40729;SDS011;26418;50.070;8.436;2023-06-14T05:50:53;6.72;;;3.80;;
40729;SDS011;26418;50.070;8.436;2023-06-14T05:53:19;7.40;;;4.30;;
40729;SDS011;26418;50.070;8.436;2023-06-14T05:55:44;5.50;;;4.28;;
40729;SDS011;26418;50.070;8.436;2023-06-14T05:58:10;6.03;;;4.13;;
40729;SDS011;26418;50.070;8.436;2023-06-14T06:00:35;9.45;;;4.07;;
40729;SDS011;26418;50.070;8.436;2023-06-14T06:03:01;9.10;;;4.28;;
40729;SDS011;26418;50.070;8.436;2023-06-14T06:05:27;7.95;;;3.55;;
40729;SDS011;26418;50.070;8.436;2023-06-14T06:07:52;7.47;;;4.30;;
40729;SDS011;26418;50.070;8.436;2023-06-14T06:10:18;8.57;;;4.05;;
40729;SDS011;26418;50.070;8.436;2023-06-14T06:12:43;8.05;;;4.00;;
40729;SDS011;26418;50.070;8.436;2023-06-14T06:15:10;11.13;;;4.82;;
40729;SDS011;26418;50.070;8.436;2023-06-14T06:17:38;9.77;;;3.78;;
40729;SDS011;26418;50.070;8.436;2023-06-14T06:20:05;6.35;;;3.38;;
40729;SDS011;26418;50.070;8.436;2023-06-14T06:22:33;6.75;;;3.85;;
40729;SDS011;26418;50.070;8.436;2023-06-14T06:24:59;9.80;;;3.83;;
40729;SDS011;26418;50.070;8.436;2023-06-14T06:27:25;8.48;;;4.53;;
40729;SDS011;26418;50.070;8.436;2023-06-14T06:29:50;7.55;;;4.15;;
40729;SDS011;26418;50.070;8.436;2023-06-14T06:32:16;12.02;;;4.05;;
40729;SDS011;26418;50.070;8.436;2023-06-14T06:34:42;7.57;;;4.38;;
40729;SDS011;26418;50.070;8.436;2023-06-14T06:37:08;12.30;;;4.47;;
40729;SDS011;26418;50.070;8.436;2023-06-14T06:39:33;5.38;;;3.65;;
40729;SDS011;26418;50.070;8.436;2023-06-14T06:41:59;9.75;;;4.00;;
40729;SDS011;26418;50.070;8.436;2023-06-14T06:44:24;4.82;;;3.30;;
40729;SDS011;26418;50.070;8.436;2023-06-14T06:46:50;7.82;;;3.97;;
40729;SDS011;26418;50.070;8.436;2023-06-14T06:49:15;4.82;;;3.70;;
40729;SDS011;26418;50.070;8.436;2023-06-14T06:51:41;6.22;;;3.70;;
40729;SDS011;26418;50.070;8.436;2023-06-14T06:54:08;6.68;;;3.72;;
40729;SDS011;26418;50.070;8.436;2023-06-14T06:56:34;7.55;;;4.43;;
40729;SDS011;26418;50.070;8.436;2023-06-14T06:59:00;14.98;;;3.75;;
40729;SDS011;26418;50.070;8.436;2023-06-14T07:01:26;11.70;;;3.90;;
40729;SDS011;26418;50.070;8.436;2023-06-14T07:03:54;10.70;;;3.72;;
40729;SDS011;26418;50.070;8.436;2023-06-14T07:06:20;6.05;;;3.50;;
40729;SDS011;26418;50.070;8.436;2023-06-14T07:08:46;6.20;;;3.80;;
40729;SDS011;26418;50.070;8.436;2023-06-14T07:11:13;6.72;;;3.67;;
40729;SDS011;26418;50.070;8.436;2023-06-14T07:13:39;5.72;;;3.13;;
40729;SDS011;26418;50.070;8.436;2023-06-14T07:16:05;5.70;;;4.00;;
40729;SDS011;26418;50.070;8.436;2023-06-14T07:18:31;6.97;;;3.80;;
40729;SDS011;26418;50.070;8.436;2023-06-14T07:20:57;3.58;;;2.90;;
40729;SDS011;26418;50.070;8.436;2023-06-14T07:23:23;5.88;;;2.75;;
40729;SDS011;26418;50.070;8.436;2023-06-14T07:25:48;6.53;;;3.05;;
40729;SDS011;26418;50.070;8.436;2023-06-14T07:28:15;5.15;;;3.33;;
40729;SDS011;26418;50.070;8.436;2023-06-14T07:30:42;5.85;;;3.28;;
40729;SDS011;26418;50.070;8.436;2023-06-14T07:33:07;5.65;;;3.55;;
40729;SDS011;26418;50.070;8.436;2023-06-14T07:35:33;13.00;;;3.90;;
40729;SDS011;26418;50.070;8.436;2023-06-14T07:37:59;6.30;;;3.63;;
40729;SDS011;26418;50.070;8.436;2023-06-14T07:40:24;5.55;;;3.25;;
40729;SDS011;26418;50.070;8.436;2023-06-14T07:42:50;4.70;;;3.50;;
40729;SDS011;26418;50.070;8.436;2023-06-14T07:45:16;5.00;;;3.47;;
40729;SDS011;26418;50.070;8.436;2023-06-14T07:47:41;3.55;;;2.72;;
40729;SDS011;26418;50.070;8.436;2023-06-14T07:50:07;6.40;;;3.00;;
40729;SDS011;26418;50.070;8.436;2023-06-14T07:52:33;5.60;;;3.03;;
40729;SDS011;26418;50.070;8.436;2023-06-14T07:54:59;4.47;;;3.28;;
40729;SDS011;26418;50.070;8.436;2023-06-14T07:57:25;4.15;;;2.67;;
40729;SDS011;26418;50.070;8.436;2023-06-14T07:59:50;6.05;;;2.65;;
40729;SDS011;26418;50.070;8.436;2023-06-14T08:02:16;5.07;;;2.85;;
40729;SDS011;26418;50.070;8.436;2023-06-14T08:04:42;10.57;;;3.15;;
40729;SDS011;26418;50.070;8.436;2023-06-14T08:07:07;4.40;;;2.78;;
40729;SDS011;26418;50.070;8.436;2023-06-14T08:09:34;5.03;;;2.70;;
40729;SDS011;26418;50.070;8.436;2023-06-14T08:12:02;4.22;;;2.97;;
40729;SDS011;26418;50.070;8.436;2023-06-14T08:14:32;4.55;;;2.83;;
40729;SDS011;26418;50.070;8.436;2023-06-14T08:16:58;4.03;;;2.50;;
40729;SDS011;26418;50.070;8.436;2023-06-14T08:19:24;7.85;;;2.72;;
40729;SDS011;26418;50.070;8.436;2023-06-14T08:21:50;3.97;;;2.45;;
40729;SDS011;26418;50.070;8.436;2023-06-14T08:24:15;4.22;;;2.63;;
40729;SDS011;26418;50.070;8.436;2023-06-14T08:26:43;3.42;;;1.95;;
40729;SDS011;26418;50.070;8.436;2023-06-14T08:29:09;4.15;;;2.55;;
40729;SDS011;26418;50.070;8.436;2023-06-14T08:31:35;3.72;;;2.65;;
40729;SDS011;26418;50.070;8.436;2023-06-14T08:34:01;2.97;;;2.05;;
40729;SDS011;26418;50.070;8.436;2023-06-14T08:36:27;6.78;;;2.60;;
40729;SDS011;26418;50.070;8.436;2023-06-14T08:38:52;3.40;;;2.25;;
40729;SDS011;26418;50.070;8.436;2023-06-14T08:41:21;2.53;;;2.00;;
40729;SDS011;26418;50.070;8.436;2023-06-14T08:43:49;3.20;;;1.90;;
40729;SDS011;26418;50.070;8.436;2023-06-14T08:46:17;3.60;;;1.65;;
40729;SDS011;26418;50.070;8.436;2023-06-14T08:48:46;3.92;;;1.58;;
40729;SDS011;26418;50.070;8.436;2023-06-14T08:51:12;1.83;;;1.73;;
40729;SDS011;26418;50.070;8.436;2023-06-14T08:53:39;3.08;;;1.40;;
40729;SDS011;26418;50.070;8.436;2023-06-14T08:56:07;2.40;;;1.30;;
40729;SDS011;26418;50.070;8.436;2023-06-14T08:58:39;2.80;;;1.42;;
40729;SDS011;26418;50.070;8.436;2023-06-14T09:01:10;3.55;;;1.80;;
40729;SDS011;26418;50.070;8.436;2023-06-14T09:06:07;3.13;;;1.50;;
40729;SDS011;26418;50.070;8.436;2023-06-14T09:08:39;3.45;;;1.35;;
40729;SDS011;26418;50.070;8.436;2023-06-14T09:11:07;4.00;;;1.65;;
40729;SDS011;26418;50.070;8.436;2023-06-14T09:13:33;1.70;;;1.50;;
40729;SDS011;26418;50.070;8.436;2023-06-14T09:15:59;3.63;;;1.52;;
40729;SDS011;26418;50.070;8.436;2023-06-14T09:18:44;4.07;;;1.73;;
40729;SDS011;26418;50.070;8.436;2023-06-14T09:21:16;2.60;;;1.45;;
40729;SDS011;26418;50.070;8.436;2023-06-14T09:23:46;2.00;;;1.17;;
40729;SDS011;26418;50.070;8.436;2023-06-14T09:26:14;1.80;;;1.45;;
40729;SDS011;26418;50.070;8.436;2023-06-14T09:28:44;2.67;;;1.88;;
40729;SDS011;26418;50.070;8.436;2023-06-14T09:31:14;2.58;;;1.65;;
40729;SDS011;26418;50.070;8.436;2023-06-14T09:33:44;3.63;;;2.03;;
40729;SDS011;26418;50.070;8.436;2023-06-14T09:36:16;3.15;;;1.58;;
40729;SDS011;26418;50.070;8.436;2023-06-14T09:38:53;4.03;;;1.65;;
40729;SDS011;26418;50.070;8.436;2023-06-14T09:41:31;3.90;;;1.73;;
40729;SDS011;26418;50.070;8.436;2023-06-14T09:44:03;6.07;;;2.15;;
40729;SDS011;26418;50.070;8.436;2023-06-14T09:46:30;1.60;;;1.50;;
40729;SDS011;26418;50.070;8.436;2023-06-14T09:49:00;2.90;;;1.52;;
40729;SDS011;26418;50.070;8.436;2023-06-14T09:51:27;3.67;;;1.83;;
40729;SDS011;26418;50.070;8.436;2023-06-14T09:53:56;3.03;;;1.90;;
40729;SDS011;26418;50.070;8.436;2023-06-14T09:56:40;2.88;;;1.70;;
40729;SDS011;26418;50.070;8.436;2023-06-14T09:59:09;1.63;;;1.50;;
40729;SDS011;26418;50.070;8.436;2023-06-14T10:01:46;2.20;;;1.85;;
40729;SDS011;26418;50.070;8.436;2023-06-14T10:04:13;4.43;;;1.92;;
40729;SDS011;26418;50.070;8.436;2023-06-14T10:06:41;2.03;;;1.48;;
40729;SDS011;26418;50.070;8.436;2023-06-14T10:09:11;3.58;;;1.38;;
40729;SDS011;26418;50.070;8.436;2023-06-14T10:11:37;5.18;;;1.65;;
40729;SDS011;26418;50.070;8.436;2023-06-14T10:14:08;2.00;;;1.70;;
40729;SDS011;26418;50.070;8.436;2023-06-14T10:19:24;3.28;;;1.38;;
40729;SDS011;26418;50.070;8.436;2023-06-14T10:24:43;2.88;;;1.70;;
40729;SDS011;26418;50.070;8.436;2023-06-14T10:27:10;5.90;;;1.98;;
40729;SDS011;26418;50.070;8.436;2023-06-14T10:30:21;6.28;;;1.65;;
40729;SDS011;26418;50.070;8.436;2023-06-14T10:32:27;4.68;;;1.85;;
40729;SDS011;26418;50.070;8.436;2023-06-14T10:34:57;1.75;;;1.65;;
40729;SDS011;26418;50.070;8.436;2023-06-14T10:37:23;3.70;;;1.75;;
40729;SDS011;26418;50.070;8.436;2023-06-14T10:39:49;2.35;;;1.90;;
40729;SDS011;26418;50.070;8.436;2023-06-14T10:42:16;2.28;;;1.85;;
40729;SDS011;26418;50.070;8.436;2023-06-14T10:44:42;4.15;;;2.15;;
40729;SDS011;26418;50.070;8.436;2023-06-14T10:47:35;3.30;;;1.90;;
40729;SDS011;26418;50.070;8.436;2023-06-14T10:50:03;3.92;;;2.10;;
40729;SDS011;26418;50.070;8.436;2023-06-14T10:52:32;2.47;;;1.92;;
40729;SDS011;26418;50.070;8.436;2023-06-14T11:00:58;2.13;;;1.92;;
40729;SDS011;26418;50.070;8.436;2023-06-14T11:03:43;4.60;;;2.00;;
40729;SDS011;26418;50.070;8.436;2023-06-14T11:06:19;3.72;;;1.98;;
40729;SDS011;26418;50.070;8.436;2023-06-14T11:08:56;2.88;;;2.08;;
40729;SDS011;26418;50.070;8.436;2023-06-14T11:11:32;3.35;;;2.03;;
40729;SDS011;26418;50.070;8.436;2023-06-14T11:14:01;4.47;;;1.95;;
40729;SDS011;26418;50.070;8.436;2023-06-14T11:16:27;5.32;;;2.13;;
40729;SDS011;26418;50.070;8.436;2023-06-14T11:18:53;4.80;;;2.40;;
40729;SDS011;26418;50.070;8.436;2023-06-14T11:21:19;4.40;;;2.80;;
40729;SDS011;26418;50.070;8.436;2023-06-14T11:23:51;2.33;;;2.00;;
40729;SDS011;26418;50.070;8.436;2023-06-14T11:26:24;3.08;;;2.20;;
40729;SDS011;26418;50.070;8.436;2023-06-14T11:28:59;4.15;;;2.40;;
40729;SDS011;26418;50.070;8.436;2023-06-14T11:31:29;6.30;;;2.60;;
40729;SDS011;26418;50.070;8.436;2023-06-14T11:33:56;3.55;;;2.10;;
40729;SDS011;26418;50.070;8.436;2023-06-14T11:36:23;2.83;;;2.53;;
40729;SDS011;26418;50.070;8.436;2023-06-14T11:38:57;6.68;;;2.53;;
40729;SDS011;26418;50.070;8.436;2023-06-14T11:41:46;3.53;;;2.28;;
40729;SDS011;26418;50.070;8.436;2023-06-14T11:44:11;3.25;;;2.20;;
40729;SDS011;26418;50.070;8.436;2023-06-14T11:46:37;7.50;;;2.30;;
40729;SDS011;26418;50.070;8.436;2023-06-14T11:49:03;3.08;;;2.33;;
40729;SDS011;26418;50.070;8.436;2023-06-14T11:51:35;5.88;;;2.70;;
40729;SDS011;26418;50.070;8.436;2023-06-14T11:54:02;3.17;;;1.90;;
40729;SDS011;26418;50.070;8.436;2023-06-14T11:56:29;4.75;;;2.55;;
40729;SDS011;26418;50.070;8.436;2023-06-14T11:58:57;3.58;;;2.00;;
40729;SDS011;26418;50.070;8.436;2023-06-14T12:01:23;4.13;;;2.42;;
40729;SDS011;26418;50.070;8.436;2023-06-14T12:03:49;2.22;;;1.83;;
40729;SDS011;26418;50.070;8.436;2023-06-14T12:06:16;3.55;;;3.00;;
40729;SDS011;26418;50.070;8.436;2023-06-14T12:08:43;3.20;;;2.22;;
40729;SDS011;26418;50.070;8.436;2023-06-14T12:11:11;3.40;;;2.42;;
40729;SDS011;26418;50.070;8.436;2023-06-14T12:13:41;5.75;;;2.33;;
40729;SDS011;26418;50.070;8.436;2023-06-14T12:16:11;2.75;;;1.90;;
40729;SDS011;26418;50.070;8.436;2023-06-14T12:18:37;7.72;;;2.28;;
40729;SDS011;26418;50.070;8.436;2023-06-14T12:21:07;2.08;;;1.77;;
40729;SDS011;26418;50.070;8.436;2023-06-14T12:23:43;4.00;;;2.20;;
40729;SDS011;26418;50.070;8.436;2023-06-14T12:26:12;3.63;;;2.10;;
40729;SDS011;26418;50.070;8.436;2023-06-14T12:28:42;4.53;;;1.90;;
40729;SDS011;26418;50.070;8.436;2023-06-14T12:31:10;2.58;;;2.10;;
40729;SDS011;26418;50.070;8.436;2023-06-14T12:33:37;2.92;;;1.92;;
40729;SDS011;26418;50.070;8.436;2023-06-14T12:36:04;3.42;;;1.85;;
40729;SDS011;26418;50.070;8.436;2023-06-14T12:38:31;4.50;;;2.05;;
40729;SDS011;26418;50.070;8.436;2023-06-14T12:40:57;6.47;;;2.65;;
40729;SDS011;26418;50.070;8.436;2023-06-14T12:43:23;1.92;;;1.65;;
40729;SDS011;26418;50.070;8.436;2023-06-14T12:45:49;3.33;;;2.10;;
40729;SDS011;26418;50.070;8.436;2023-06-14T12:48:14;2.03;;;1.83;;
40729;SDS011;26418;50.070;8.436;2023-06-14T12:50:40;1.77;;;1.67;;
40729;SDS011;26418;50.070;8.436;2023-06-14T12:53:06;3.42;;;1.88;;
40729;SDS011;26418;50.070;8.436;2023-06-14T12:55:32;7.47;;;2.00;;
40729;SDS011;26418;50.070;8.436;2023-06-14T12:57:58;3.72;;;2.00;;
40729;SDS011;26418;50.070;8.436;2023-06-14T13:00:23;3.72;;;2.00;;
40729;SDS011;26418;50.070;8.436;2023-06-14T13:02:51;2.70;;;2.03;;
40729;SDS011;26418;50.070;8.436;2023-06-14T13:05:17;3.35;;;2.03;;
40729;SDS011;26418;50.070;8.436;2023-06-14T13:07:43;5.68;;;2.50;;
40729;SDS011;26418;50.070;8.436;2023-06-14T13:10:10;3.88;;;2.15;;
40729;SDS011;26418;50.070;8.436;2023-06-14T13:12:36;4.05;;;2.47;;
40729;SDS011;26418;50.070;8.436;2023-06-14T13:15:01;2.60;;;2.40;;
40729;SDS011;26418;50.070;8.436;2023-06-14T13:17:27;3.33;;;2.50;;
40729;SDS011;26418;50.070;8.436;2023-06-14T13:19:53;4.88;;;2.70;;
40729;SDS011;26418;50.070;8.436;2023-06-14T13:22:19;5.28;;;2.55;;
40729;SDS011;26418;50.070;8.436;2023-06-14T13:24:45;6.18;;;2.15;;
40729;SDS011;26418;50.070;8.436;2023-06-14T13:27:10;7.13;;;2.40;;
40729;SDS011;26418;50.070;8.436;2023-06-14T13:29:36;3.20;;;2.65;;
40729;SDS011;26418;50.070;8.436;2023-06-14T13:32:02;2.97;;;2.53;;
40729;SDS011;26418;50.070;8.436;2023-06-14T13:34:28;4.30;;;2.42;;
40729;SDS011;26418;50.070;8.436;2023-06-14T13:36:54;3.47;;;2.28;;
40729;SDS011;26418;50.070;8.436;2023-06-14T13:39:21;6.03;;;2.72;;
40729;SDS011;26418;50.070;8.436;2023-06-14T13:41:47;5.97;;;3.25;;
40729;SDS011;26418;50.070;8.436;2023-06-14T13:44:13;3.92;;;2.22;;
40729;SDS011;26418;50.070;8.436;2023-06-14T13:46:40;5.38;;;2.80;;
40729;SDS011;26418;50.070;8.436;2023-06-14T13:49:08;3.72;;;2.47;;
40729;SDS011;26418;50.070;8.436;2023-06-14T13:51:34;3.15;;;2.60;;
40729;SDS011;26418;50.070;8.436;2023-06-14T13:54:00;5.43;;;2.78;;
40729;SDS011;26418;50.070;8.436;2023-06-14T13:56:26;3.03;;;2.33;;
40729;SDS011;26418;50.070;8.436;2023-06-14T13:58:52;3.00;;;2.35;;
40729;SDS011;26418;50.070;8.436;2023-06-14T14:01:17;5.72;;;2.63;;
40729;SDS011;26418;50.070;8.436;2023-06-14T14:03:48;3.97;;;2.50;;
40729;SDS011;26418;50.070;8.436;2023-06-14T14:06:15;7.30;;;2.85;;
40729;SDS011;26418;50.070;8.436;2023-06-14T14:08:41;5.57;;;1.83;;
40729;SDS011;26418;50.070;8.436;2023-06-14T14:11:07;4.95;;;2.38;;
40729;SDS011;26418;50.070;8.436;2023-06-14T14:13:33;3.13;;;2.10;;
40729;SDS011;26418;50.070;8.436;2023-06-14T14:16:01;3.58;;;2.78;;
40729;SDS011;26418;50.070;8.436;2023-06-14T14:18:28;4.38;;;2.78;;
40729;SDS011;26418;50.070;8.436;2023-06-14T14:20:53;6.15;;;2.53;;
40729;SDS011;26418;50.070;8.436;2023-06-14T14:23:19;3.85;;;2.65;;
40729;SDS011;26418;50.070;8.436;2023-06-14T14:25:45;5.63;;;2.40;;
40729;SDS011;26418;50.070;8.436;2023-06-14T14:28:11;4.03;;;2.47;;
40729;SDS011;26418;50.070;8.436;2023-06-14T14:30:38;4.07;;;2.20;;
40729;SDS011;26418;50.070;8.436;2023-06-14T14:33:05;4.90;;;2.63;;
40729;SDS011;26418;50.070;8.436;2023-06-14T14:35:31;7.22;;;2.40;;
40729;SDS011;26418;50.070;8.436;2023-06-14T14:37:57;6.93;;;2.20;;
40729;SDS011;26418;50.070;8.436;2023-06-14T14:40:23;2.78;;;2.03;;
40729;SDS011;26418;50.070;8.436;2023-06-14T14:42:48;11.88;;;2.67;;
40729;SDS011;26418;50.070;8.436;2023-06-14T14:45:14;3.22;;;2.40;;
40729;SDS011;26418;50.070;8.436;2023-06-14T14:47:39;3.65;;;2.13;;
40729;SDS011;26418;50.070;8.436;2023-06-14T14:50:05;4.72;;;2.22;;
40729;SDS011;26418;50.070;8.436;2023-06-14T14:52:34;3.83;;;2.40;;
40729;SDS011;26418;50.070;8.436;2023-06-14T14:55:00;4.72;;;2.13;;
40729;SDS011;26418;50.070;8.436;2023-06-14T14:57:26;4.22;;;2.17;;
40729;SDS011;26418;50.070;8.436;2023-06-14T14:59:51;3.72;;;2.38;;
40729;SDS011;26418;50.070;8.436;2023-06-14T15:02:17;5.25;;;2.20;;
40729;SDS011;26418;50.070;8.436;2023-06-14T15:04:44;3.65;;;2.35;;
40729;SDS011;26418;50.070;8.436;2023-06-14T15:07:10;3.45;;;1.92;;
40729;SDS011;26418;50.070;8.436;2023-06-14T15:09:35;16.00;;;2.63;;
40729;SDS011;26418;50.070;8.436;2023-06-14T15:12:01;3.92;;;2.25;;
40729;SDS011;26418;50.070;8.436;2023-06-14T15:14:27;4.75;;;2.45;;
40729;SDS011;26418;50.070;8.436;2023-06-14T15:16:53;2.90;;;2.22;;
40729;SDS011;26418;50.070;8.436;2023-06-14T15:19:19;3.97;;;2.60;;
40729;SDS011;26418;50.070;8.436;2023-06-14T15:21:44;6.38;;;2.60;;
40729;SDS011;26418;50.070;8.436;2023-06-14T15:24:10;2.63;;;2.13;;
40729;SDS011;26418;50.070;8.436;2023-06-14T15:26:36;3.20;;;2.60;;
40729;SDS011;26418;50.070;8.436;2023-06-14T15:29:01;6.25;;;2.28;;
40729;SDS011;26418;50.070;8.436;2023-06-14T15:31:27;3.28;;;2.15;;
40729;SDS011;26418;50.070;8.436;2023-06-14T15:33:54;5.10;;;2.63;;
40729;SDS011;26418;50.070;8.436;2023-06-14T15:36:19;3.83;;;2.30;;
40729;SDS011;26418;50.070;8.436;2023-06-14T15:38:45;4.22;;;2.28;;
40729;SDS011;26418;50.070;8.436;2023-06-14T15:41:11;3.08;;;2.55;;